createdAt,value
2018-12-17T00:01:26.811Z,13.00
2018-12-17T00:03:58.512Z,12.60
2018-12-17T00:06:29.854Z,13.70
2018-12-17T00:08:59.582Z,14.03
2018-12-17T00:11:28.920Z,13.30
2018-12-17T00:13:58.291Z,11.63
2018-12-17T00:16:28.091Z,13.13
2018-12-17T00:18:57.588Z,15.10
2018-12-17T00:21:27.007Z,13.73
2018-12-17T00:23:56.926Z,13.73
2018-12-17T00:26:26.165Z,15.10
2018-12-17T00:28:55.809Z,13.73
2018-12-17T00:31:25.629Z,15.83
2018-12-17T00:33:55.063Z,14.63
2018-12-17T00:36:24.287Z,14.47
2018-12-17T00:38:53.765Z,16.53
2018-12-17T00:41:23.125Z,15.53
2018-12-17T00:43:52.780Z,14.80
2018-12-17T00:46:22.504Z,13.80
2018-12-17T00:48:51.963Z,11.70
2018-12-17T00:51:22.084Z,12.90
2018-12-17T00:53:51.796Z,10.97
2018-12-17T00:56:21.361Z,12.43
2018-12-17T00:58:51.827Z,11.63
2018-12-17T01:01:21.973Z,12.17
2018-12-17T01:03:51.295Z,11.67
2018-12-17T01:06:20.748Z,12.13
2018-12-17T01:08:50.463Z,10.50
2018-12-17T01:11:19.754Z,12.43
2018-12-17T01:13:49.915Z,13.23
2018-12-17T01:16:19.722Z,11.50
2018-12-17T01:18:49.377Z,12.30
2018-12-17T01:21:19.243Z,13.97
2018-12-17T01:23:49.391Z,13.77
2018-12-17T01:26:19.150Z,14.33
2018-12-17T01:28:49.500Z,12.47
2018-12-17T01:31:18.924Z,13.47
2018-12-17T01:33:48.287Z,11.33
2018-12-17T01:36:17.870Z,12.97
2018-12-17T01:38:47.187Z,11.10
2018-12-17T01:41:16.835Z,11.20
2018-12-17T01:43:46.282Z,11.33
2018-12-17T01:46:15.583Z,11.17
2018-12-17T01:48:45.279Z,12.33
2018-12-17T01:51:14.642Z,14.20
2018-12-17T01:53:44.330Z,10.60
2018-12-17T01:56:14.265Z,12.70
2018-12-17T01:58:43.853Z,15.17
2018-12-17T02:01:13.256Z,12.93
2018-12-17T02:03:42.639Z,12.80
2018-12-17T02:06:12.233Z,12.47
2018-12-17T02:08:42.951Z,12.70
2018-12-17T02:11:12.254Z,10.70
2018-12-17T02:13:41.707Z,14.87
2018-12-17T02:16:11.251Z,15.10
2018-12-17T02:18:40.684Z,12.00
2018-12-17T02:21:10.120Z,13.57
2018-12-17T02:23:39.957Z,13.23
2018-12-17T02:26:09.526Z,13.30
2018-12-17T02:28:39.579Z,12.33
2018-12-17T02:31:09.274Z,11.73
2018-12-17T02:33:38.928Z,13.47
2018-12-17T02:36:08.574Z,14.63
2018-12-17T02:38:37.864Z,11.63
2018-12-17T02:41:07.465Z,12.87
2018-12-17T02:43:38.155Z,13.03
2018-12-17T02:46:07.524Z,12.60
2018-12-17T02:48:36.816Z,13.40
2018-12-17T02:51:06.448Z,12.60
2018-12-17T02:53:36.047Z,13.37
2018-12-17T02:56:05.589Z,12.20
2018-12-17T02:58:35.415Z,15.67
2018-12-17T03:01:04.820Z,11.10
2018-12-17T03:03:34.487Z,14.10
2018-12-17T03:06:03.782Z,12.47
2018-12-17T03:08:33.568Z,14.60
2018-12-17T03:11:03.878Z,14.73
2018-12-17T03:13:33.633Z,13.17
2018-12-17T03:16:02.917Z,12.77
2018-12-17T03:18:32.637Z,13.70
2018-12-17T03:21:02.135Z,13.27
2018-12-17T03:23:31.892Z,13.03
2018-12-17T03:26:01.324Z,10.90
2018-12-17T03:28:30.772Z,11.50
2018-12-17T03:31:00.524Z,10.47
2018-12-17T03:33:30.090Z,12.77
2018-12-17T03:35:59.564Z,14.90
2018-12-17T03:38:29.097Z,10.67
2018-12-17T03:40:58.792Z,12.40
2018-12-17T03:43:28.122Z,12.03
2018-12-17T03:45:57.830Z,11.87
2018-12-17T03:48:27.065Z,10.73
2018-12-17T03:50:56.378Z,13.67
2018-12-17T03:53:25.997Z,14.73
2018-12-17T03:55:55.315Z,13.93
2018-12-17T03:58:24.886Z,13.10
2018-12-17T04:00:54.802Z,13.83
2018-12-17T04:03:24.127Z,15.30
2018-12-17T04:05:53.673Z,18.03
2018-12-17T04:08:23.275Z,11.90
2018-12-17T04:10:52.875Z,13.37
2018-12-17T04:13:22.415Z,13.33
2018-12-17T04:15:51.974Z,10.67
2018-12-17T04:18:21.793Z,12.67
2018-12-17T04:20:51.570Z,15.73
2018-12-17T04:23:20.995Z,15.70
2018-12-17T04:25:52.704Z,12.77
2018-12-17T04:28:22.394Z,12.50
2018-12-17T04:30:51.901Z,13.60
2018-12-17T04:33:21.734Z,12.20
2018-12-17T04:35:51.392Z,11.23
2018-12-17T04:38:20.842Z,12.30
2018-12-17T04:40:50.147Z,12.87
2018-12-17T04:43:19.612Z,16.57
2018-12-17T04:45:49.124Z,12.83
2018-12-17T04:48:18.663Z,10.97
2018-12-17T04:50:48.339Z,10.93
2018-12-17T04:53:18.393Z,13.43
2018-12-17T04:55:47.729Z,16.67
2018-12-17T04:58:17.200Z,11.23
2018-12-17T05:00:46.867Z,13.83
2018-12-17T05:03:16.464Z,12.23
2018-12-17T05:05:45.725Z,13.07
2018-12-17T05:08:15.125Z,12.53
2018-12-17T05:10:44.623Z,13.60
2018-12-17T05:13:14.211Z,21.07
2018-12-17T05:15:43.393Z,16.87
2018-12-17T05:18:12.767Z,11.57
2018-12-17T05:20:42.158Z,23.20
2018-12-17T05:23:11.609Z,31.63
2018-12-17T05:25:41.070Z,19.47
2018-12-17T05:28:10.728Z,16.63
2018-12-17T05:30:41.249Z,24.93
2018-12-17T05:33:11.028Z,21.63
2018-12-17T05:35:40.301Z,26.20
2018-12-17T05:38:09.908Z,27.70
2018-12-17T05:40:39.168Z,15.73
2018-12-17T05:43:08.439Z,26.83
2018-12-17T05:45:38.029Z,23.33
2018-12-17T05:48:07.408Z,21.60
2018-12-17T05:50:37.861Z,21.83
2018-12-17T05:53:07.372Z,18.57
2018-12-17T05:55:36.955Z,19.37
2018-12-17T05:58:06.673Z,18.00
2018-12-17T06:00:36.178Z,21.97
2018-12-17T06:03:05.883Z,22.37
2018-12-17T06:05:35.405Z,21.33
2018-12-17T06:08:05.013Z,21.43
2018-12-17T06:10:34.512Z,17.57
2018-12-17T06:13:04.000Z,18.63
2018-12-17T06:15:33.643Z,23.07
2018-12-17T06:18:03.376Z,21.63
2018-12-17T06:20:33.059Z,21.27
2018-12-17T06:23:02.665Z,19.47
2018-12-17T06:25:32.337Z,16.27
2018-12-17T06:28:01.891Z,20.07
2018-12-17T06:30:31.449Z,27.13
2018-12-17T06:33:00.925Z,20.50
2018-12-17T06:35:30.179Z,17.20
2018-12-17T06:37:59.704Z,17.17
2018-12-17T06:40:30.179Z,16.30
2018-12-17T06:42:59.553Z,18.07
2018-12-17T06:45:29.023Z,16.83
2018-12-17T06:47:58.853Z,19.37
2018-12-17T06:50:28.469Z,19.83
2018-12-17T06:52:58.117Z,14.87
2018-12-17T06:55:27.743Z,15.47
2018-12-17T06:57:57.606Z,16.10
2018-12-17T07:00:27.087Z,16.50
2018-12-17T07:02:56.590Z,15.50
2018-12-17T07:05:25.994Z,13.33
2018-12-17T07:07:55.500Z,14.40
2018-12-17T07:10:24.824Z,15.80
2018-12-17T07:12:54.350Z,19.57
2018-12-17T07:15:24.352Z,18.80
2018-12-17T07:17:54.097Z,16.70
2018-12-17T07:20:23.644Z,20.17
2018-12-17T07:22:53.171Z,19.33
2018-12-17T07:25:22.515Z,19.33
2018-12-17T07:27:51.988Z,19.73
2018-12-17T07:30:21.584Z,21.20
2018-12-17T07:32:50.948Z,25.60
2018-12-17T07:35:20.347Z,25.70
2018-12-17T07:37:50.307Z,28.33
2018-12-17T07:40:19.738Z,25.30
2018-12-17T07:42:49.173Z,28.27
2018-12-17T07:45:19.350Z,24.07
2018-12-17T07:47:49.500Z,25.03
2018-12-17T07:50:19.123Z,22.70
2018-12-17T07:52:48.559Z,24.77
2018-12-17T07:55:17.942Z,24.33
2018-12-17T07:57:47.510Z,31.57
2018-12-17T08:00:17.177Z,28.07
2018-12-17T08:02:46.759Z,31.83
2018-12-17T08:05:16.364Z,26.47
2018-12-17T08:07:45.803Z,25.10
2018-12-17T08:10:15.051Z,25.70
2018-12-17T08:12:44.508Z,24.40
2018-12-17T08:15:13.900Z,25.93
2018-12-17T08:17:43.502Z,29.00
2018-12-17T08:20:12.835Z,34.50
2018-12-17T08:22:43.260Z,39.30
2018-12-17T08:25:12.725Z,40.03
2018-12-17T08:27:42.795Z,37.50
2018-12-17T08:30:12.083Z,32.33
2018-12-17T08:32:41.723Z,43.53
2018-12-17T08:35:11.501Z,42.67
2018-12-17T08:37:41.151Z,51.40
2018-12-17T08:40:10.466Z,54.37
2018-12-17T08:42:39.952Z,46.30
2018-12-17T08:45:09.575Z,37.90
2018-12-17T08:47:39.090Z,44.30
2018-12-17T08:50:09.357Z,49.17
2018-12-17T08:52:38.575Z,36.03
2018-12-17T08:55:08.334Z,33.57
2018-12-17T08:57:38.188Z,42.47
2018-12-17T09:00:11.191Z,47.77
2018-12-17T09:02:41.192Z,30.07
2018-12-17T09:05:10.881Z,33.17
2018-12-17T09:07:40.357Z,32.40
2018-12-17T09:10:09.619Z,32.93
2018-12-17T09:12:38.857Z,23.57
2018-12-17T09:15:08.403Z,24.23
2018-12-17T09:17:38.827Z,30.87
2018-12-17T09:20:08.999Z,33.50
2018-12-17T09:22:38.437Z,24.20
2018-12-17T09:25:08.298Z,23.00
2018-12-17T09:27:37.572Z,27.93
2018-12-17T09:30:07.985Z,25.93
2018-12-17T09:32:37.575Z,28.13
2018-12-17T09:35:07.225Z,28.13
2018-12-17T09:37:36.787Z,32.47
2018-12-17T09:40:07.592Z,31.07
2018-12-17T09:42:37.154Z,28.07
2018-12-17T09:45:07.720Z,30.00
2018-12-17T09:47:37.035Z,29.80
2018-12-17T09:50:06.563Z,31.67
2018-12-17T09:52:37.198Z,31.13
2018-12-17T09:55:06.725Z,33.03
2018-12-17T09:57:36.294Z,37.67
2018-12-17T10:00:06.937Z,25.10
2018-12-17T10:02:36.244Z,23.57
2018-12-17T10:05:06.640Z,24.23
2018-12-17T10:07:35.858Z,25.67
2018-12-17T10:10:06.260Z,27.00
2018-12-17T10:12:35.861Z,31.40
2018-12-17T10:15:06.473Z,35.97
2018-12-17T10:17:36.100Z,36.73
2018-12-17T10:20:06.072Z,49.17
2018-12-17T10:22:35.816Z,37.53
2018-12-17T10:25:06.212Z,35.10
2018-12-17T10:27:36.826Z,37.53
2018-12-17T10:30:07.277Z,33.00
2018-12-17T10:32:36.814Z,38.20
2018-12-17T10:35:06.430Z,47.13
2018-12-17T10:37:35.864Z,44.30
2018-12-17T10:40:06.784Z,39.87
2018-12-17T10:42:36.179Z,36.37
2018-12-17T10:45:06.740Z,38.23
2018-12-17T10:47:36.261Z,40.10
2018-12-17T10:50:06.711Z,37.17
2018-12-17T10:52:36.339Z,35.43
2018-12-17T10:55:06.371Z,29.87
2018-12-17T10:57:36.095Z,33.67
2018-12-17T11:00:06.849Z,37.27
2018-12-17T11:02:36.513Z,42.83
2018-12-17T11:05:15.317Z,40.20
2018-12-17T11:07:44.825Z,35.90
2018-12-17T11:10:14.287Z,38.47
2018-12-17T11:12:43.951Z,40.23
2018-12-17T11:15:13.781Z,37.13
2018-12-17T11:17:44.702Z,38.90
2018-12-17T11:20:14.403Z,41.60
2018-12-17T11:22:44.127Z,40.13
2018-12-17T11:25:13.558Z,39.30
2018-12-17T11:27:42.821Z,43.50
2018-12-17T11:30:12.988Z,41.70
2018-12-17T11:32:44.400Z,42.60
2018-12-17T11:35:14.132Z,43.10
2018-12-17T11:37:43.373Z,40.93
2018-12-17T11:40:12.820Z,39.53
2018-12-17T11:42:42.605Z,41.53
2018-12-17T11:45:12.214Z,46.13
2018-12-17T11:47:41.730Z,48.27
2018-12-17T11:50:11.674Z,40.57
2018-12-17T11:52:40.924Z,50.03
2018-12-17T11:55:10.728Z,48.53
2018-12-17T11:58:15.064Z,54.20
2018-12-17T12:01:17.361Z,49.13
2018-12-17T12:03:47.027Z,44.40
2018-12-17T12:06:16.863Z,51.47
2018-12-17T12:08:46.301Z,48.37
2018-12-17T12:11:15.926Z,52.37
2018-12-17T12:13:45.508Z,48.77
2018-12-17T12:16:14.989Z,54.90
2018-12-17T12:18:44.730Z,60.97
2018-12-17T12:21:14.310Z,60.73
2018-12-17T12:23:44.066Z,59.63
2018-12-17T12:26:13.505Z,59.00
2018-12-17T12:28:42.752Z,62.83
2018-12-17T12:31:12.110Z,50.27
2018-12-17T12:33:41.775Z,56.93
2018-12-17T12:36:11.003Z,46.07
2018-12-17T12:38:40.279Z,43.87
2018-12-17T12:41:10.096Z,42.63
2018-12-17T12:43:39.455Z,41.37
2018-12-17T12:46:09.157Z,43.30
2018-12-17T12:48:38.877Z,44.27
2018-12-17T12:51:08.170Z,41.70
2018-12-17T12:53:37.677Z,39.40
2018-12-17T12:56:07.217Z,41.00
2018-12-17T12:58:36.825Z,53.60
2018-12-17T13:01:07.784Z,43.97
2018-12-17T13:03:37.886Z,44.90
2018-12-17T13:06:07.363Z,47.70
2018-12-17T13:08:36.628Z,45.33
2018-12-17T13:11:06.126Z,45.90
2018-12-17T13:13:35.543Z,44.80
2018-12-17T13:16:05.091Z,45.73
2018-12-17T13:18:34.927Z,43.87
2018-12-17T13:21:04.394Z,42.07
2018-12-17T13:23:33.907Z,55.80
2018-12-17T13:26:03.707Z,51.00
2018-12-17T13:28:33.377Z,52.23
2018-12-17T13:31:02.823Z,53.67
2018-12-17T13:33:32.657Z,53.60
2018-12-17T13:36:01.923Z,48.63
2018-12-17T13:38:31.397Z,47.57
2018-12-17T13:41:01.325Z,46.87
2018-12-17T13:43:30.861Z,47.23
2018-12-17T13:46:00.692Z,52.20
2018-12-17T13:48:30.215Z,54.93
2018-12-17T13:51:03.673Z,63.40
2018-12-17T13:53:33.447Z,63.23
2018-12-17T13:56:03.314Z,61.60
2018-12-17T13:58:33.034Z,61.17
2018-12-17T14:01:02.420Z,65.50
2018-12-17T14:03:32.005Z,66.27
2018-12-17T14:06:01.418Z,76.73
2018-12-17T14:08:30.714Z,74.87
2018-12-17T14:11:00.882Z,75.93
2018-12-17T14:13:30.441Z,66.50
2018-12-17T14:16:05.049Z,62.20
2018-12-17T14:18:39.780Z,75.90
2018-12-17T14:21:14.529Z,71.10
2018-12-17T14:23:44.091Z,65.17
2018-12-17T14:26:13.509Z,81.43
2018-12-17T14:28:42.993Z,85.00
2018-12-17T14:31:12.497Z,71.77
2018-12-17T14:33:42.235Z,82.90
2018-12-17T14:36:11.677Z,80.60
2018-12-17T14:38:41.171Z,81.17
2018-12-17T14:41:10.716Z,81.17
2018-12-17T14:43:40.153Z,76.30
2018-12-17T14:46:09.510Z,74.60
2018-12-17T14:48:39.023Z,65.33
2018-12-17T14:51:08.609Z,71.20
2018-12-17T14:53:39.568Z,67.60
2018-12-17T14:56:09.050Z,61.93
2018-12-17T14:58:44.437Z,58.07
2018-12-17T15:01:11.194Z,57.00
2018-12-17T15:03:40.532Z,57.77
2018-12-17T15:06:09.982Z,57.10
2018-12-17T15:08:39.505Z,55.53
2018-12-17T15:11:08.832Z,65.43
2018-12-17T15:13:38.613Z,72.97
2018-12-17T15:16:07.851Z,72.70
2018-12-17T15:18:37.343Z,67.07
2018-12-17T15:21:07.472Z,62.53
2018-12-17T15:23:37.030Z,57.17
2018-12-17T15:26:06.547Z,59.97
2018-12-17T15:28:36.509Z,53.90
2018-12-17T15:31:06.156Z,50.40
2018-12-17T15:33:35.509Z,47.40
2018-12-17T15:36:04.923Z,45.73
2018-12-17T15:38:35.815Z,44.53
2018-12-17T15:41:05.187Z,34.07
2018-12-17T15:43:34.724Z,42.43
2018-12-17T15:46:04.195Z,38.87
2018-12-17T15:48:33.534Z,35.07
2018-12-17T15:51:03.086Z,43.13
2018-12-17T15:53:32.570Z,39.63
2018-12-17T15:56:01.963Z,45.10
2018-12-17T15:58:32.830Z,55.67
2018-12-17T16:01:02.389Z,55.87
2018-12-17T16:03:31.666Z,56.83
2018-12-17T16:06:01.299Z,40.23
2018-12-17T16:08:31.661Z,51.60
2018-12-17T16:11:01.226Z,50.87
2018-12-17T16:13:30.751Z,62.93
2018-12-17T16:16:00.288Z,57.70
2018-12-17T16:18:29.672Z,71.20
2018-12-17T16:20:58.977Z,62.47
2018-12-17T16:23:28.314Z,61.50
2018-12-17T16:25:57.683Z,61.70
2018-12-17T16:28:27.159Z,53.53
2018-12-17T16:30:56.894Z,49.97
2018-12-17T16:33:29.925Z,44.97
2018-12-17T16:35:58.068Z,50.10
2018-12-17T16:38:27.362Z,48.00
2018-12-17T16:40:56.707Z,64.73
2018-12-17T16:43:26.352Z,64.23
2018-12-17T16:45:55.769Z,95.87
2018-12-17T16:48:25.217Z,72.47
2018-12-17T16:50:54.998Z,78.47
2018-12-17T16:53:24.475Z,75.13
2018-12-17T16:55:53.770Z,70.90
2018-12-17T16:58:23.473Z,64.47
2018-12-17T17:00:52.860Z,57.27
2018-12-17T17:03:22.528Z,51.23
2018-12-17T17:05:53.379Z,59.00
2018-12-17T17:08:22.957Z,62.67
2018-12-17T17:10:52.792Z,55.37
2018-12-17T17:13:22.080Z,63.93
2018-12-17T17:15:51.662Z,76.93
2018-12-17T17:18:21.046Z,67.70
2018-12-17T17:20:50.779Z,56.07
2018-12-17T17:23:20.157Z,56.37
2018-12-17T17:25:50.251Z,54.17
2018-12-17T17:28:19.667Z,60.40
2018-12-17T17:30:49.439Z,49.10
2018-12-17T17:33:18.904Z,47.00
2018-12-17T17:35:48.407Z,50.20
2018-12-17T17:38:18.179Z,45.20
2018-12-17T17:40:47.709Z,49.43
2018-12-17T17:43:17.120Z,37.67
2018-12-17T17:45:46.836Z,46.27
2018-12-17T17:48:16.235Z,46.47
2018-12-17T17:50:45.882Z,40.70
2018-12-17T17:53:15.708Z,42.87
2018-12-17T17:55:45.164Z,39.97
2018-12-17T17:58:14.750Z,32.43
2018-12-17T18:00:44.658Z,52.60
2018-12-17T18:03:14.221Z,62.60
2018-12-17T18:05:43.875Z,57.30
2018-12-17T18:08:13.563Z,79.83
2018-12-17T18:10:42.837Z,67.87
2018-12-17T18:13:12.904Z,54.37
2018-12-17T18:15:42.481Z,51.90
2018-12-17T18:18:11.870Z,44.87
2018-12-17T18:20:41.449Z,38.90
2018-12-17T18:23:10.957Z,25.60
2018-12-17T18:25:40.454Z,41.80
2018-12-17T18:28:10.013Z,37.53
2018-12-17T18:30:39.501Z,30.00
2018-12-17T18:33:08.921Z,36.53
2018-12-17T18:35:38.259Z,28.10
2018-12-17T18:38:07.590Z,27.83
2018-12-17T18:40:36.880Z,30.83
2018-12-17T18:43:06.435Z,34.60
2018-12-17T18:45:35.771Z,26.27
2018-12-17T18:48:05.187Z,26.67
2018-12-17T18:50:34.915Z,27.83
2018-12-17T18:53:04.450Z,46.70
2018-12-17T18:55:34.264Z,31.00
2018-12-17T18:58:04.228Z,26.10
2018-12-17T19:00:33.797Z,25.83
2018-12-17T19:03:03.076Z,29.23
2018-12-17T19:05:32.312Z,28.60
2018-12-17T19:08:01.522Z,22.23
2018-12-17T19:11:01.170Z,24.77
2018-12-17T19:13:30.764Z,22.63
2018-12-17T19:16:00.029Z,25.27
2018-12-17T19:18:29.369Z,29.20
2018-12-17T19:20:58.731Z,27.03
2018-12-17T19:23:28.282Z,27.30
2018-12-17T19:25:57.622Z,22.23
2018-12-17T19:28:26.931Z,22.17
2018-12-17T19:30:56.437Z,21.17
2018-12-17T19:33:25.958Z,16.07
2018-12-17T19:35:55.498Z,22.27
2018-12-17T19:38:25.113Z,25.10
2018-12-17T19:40:54.460Z,28.30
2018-12-17T19:43:25.100Z,21.43
2018-12-17T19:45:54.463Z,34.40
2018-12-17T19:48:24.111Z,30.33
2018-12-17T19:50:53.911Z,32.30
2018-12-17T19:53:23.354Z,21.80
2018-12-17T19:55:54.068Z,24.30
2018-12-17T19:58:23.287Z,23.57
2018-12-17T20:00:52.704Z,19.60
2018-12-17T20:03:22.674Z,20.13
2018-12-17T20:05:52.533Z,19.73
2018-12-17T20:08:22.029Z,23.57
2018-12-17T20:10:51.712Z,20.87
2018-12-17T20:13:22.318Z,20.27
2018-12-17T20:15:52.132Z,24.13
2018-12-17T20:18:21.941Z,25.97
2018-12-17T20:20:51.549Z,20.00
2018-12-17T20:23:21.395Z,23.03
2018-12-17T20:25:50.642Z,22.20
2018-12-17T20:28:20.083Z,19.53
2018-12-17T20:30:49.685Z,20.83
2018-12-17T20:33:18.902Z,19.63
2018-12-17T20:35:48.622Z,23.03
2018-12-17T20:38:18.313Z,18.50
2018-12-17T20:40:47.827Z,17.70
2018-12-17T20:43:17.315Z,21.23
2018-12-17T20:45:46.768Z,19.30
2018-12-17T20:48:16.488Z,21.47
2018-12-17T20:50:45.731Z,23.03
2018-12-17T20:53:15.029Z,21.93
2018-12-17T20:55:44.619Z,23.13
2018-12-17T20:58:13.979Z,23.73
2018-12-17T21:00:43.243Z,21.63
2018-12-17T21:03:12.699Z,24.57
2018-12-17T21:05:42.171Z,20.73
2018-12-17T21:08:11.719Z,24.13
2018-12-17T21:10:41.350Z,23.83
2018-12-17T21:13:10.731Z,27.93
2018-12-17T21:15:40.353Z,21.57
2018-12-17T21:18:09.756Z,24.83
2018-12-17T21:20:39.473Z,25.37
2018-12-17T21:23:09.281Z,23.43
2018-12-17T21:25:39.000Z,23.67
2018-12-17T21:28:08.636Z,21.63
2018-12-17T21:30:38.460Z,22.23
2018-12-17T21:33:07.937Z,21.00
2018-12-17T21:35:37.218Z,23.33
2018-12-17T21:38:06.805Z,24.97
2018-12-17T21:40:36.194Z,28.40
2018-12-17T21:43:06.112Z,26.67
2018-12-17T21:45:35.486Z,25.50
2018-12-17T21:48:04.931Z,29.23
2018-12-17T21:50:34.744Z,21.03
2018-12-17T21:53:04.091Z,25.43
2018-12-17T21:55:35.184Z,27.30
2018-12-17T21:58:04.763Z,22.83
2018-12-17T22:00:34.014Z,27.93
2018-12-17T22:03:03.868Z,29.70
2018-12-17T22:05:33.244Z,30.87
2018-12-17T22:08:02.913Z,28.70
2018-12-17T22:10:35.663Z,25.57
2018-12-17T22:13:05.558Z,30.20
2018-12-17T22:15:35.208Z,27.77
2018-12-17T22:18:04.720Z,29.00
2018-12-17T22:20:34.058Z,24.87
2018-12-17T22:23:03.739Z,31.63
2018-12-17T22:25:33.252Z,28.43
2018-12-17T22:28:03.783Z,27.13
2018-12-17T22:30:33.659Z,30.80
2018-12-17T22:33:03.122Z,26.67
2018-12-17T22:35:32.624Z,27.13
2018-12-17T22:38:02.092Z,29.30
2018-12-17T22:40:31.633Z,28.93
2018-12-17T22:43:01.197Z,33.97
2018-12-17T22:45:30.623Z,29.27
2018-12-17T22:48:00.038Z,25.53
2018-12-17T22:50:29.556Z,32.70
2018-12-17T22:52:59.320Z,24.67
2018-12-17T22:55:28.597Z,30.03
2018-12-17T22:57:57.941Z,28.27
2018-12-17T23:00:27.739Z,31.53
2018-12-17T23:02:59.469Z,28.23
2018-12-17T23:05:29.010Z,31.10
2018-12-17T23:07:58.226Z,25.07
2018-12-17T23:10:45.327Z,33.40
2018-12-17T23:13:25.768Z,29.47
2018-12-17T23:16:07.291Z,29.37
2018-12-17T23:18:35.825Z,31.40
2018-12-17T23:21:07.342Z,33.87
2018-12-17T23:23:38.747Z,29.20
2018-12-17T23:26:10.279Z,35.07
2018-12-17T23:28:40.100Z,27.60
2018-12-17T23:31:10.009Z,29.83
2018-12-17T23:33:39.374Z,31.97
2018-12-17T23:36:09.447Z,30.23
2018-12-17T23:38:38.799Z,31.57
2018-12-17T23:41:08.343Z,39.87
2018-12-17T23:43:37.826Z,28.70
2018-12-17T23:46:07.356Z,34.43
2018-12-17T23:48:36.855Z,26.53
2018-12-17T23:51:06.109Z,29.17
2018-12-17T23:53:35.897Z,32.00
2018-12-17T23:56:05.554Z,27.93
2018-12-17T23:58:35.092Z,28.50
